ENST

Sandnessjøen , Stokka Airport

Alstahaug, Norway
METAR ENST 221850Z 27012KT 250V310 9999 VCSH FEW012CB SCT025 SCT040 05/02 Q0997 RMK WIND 300FT 29019KT
Observed Flight Rules
Oct-22 @ 18:50 UTC (6 hours ago) Visual Flight Rules
Wind Visibility Clouds
270° at 12 knots 10,000+ meters
  • Few at 1,200' AGL
  • Scattered at 2,500' AGL
  • Scattered at 4,000' AGL
Temperatures Readings
Current 5°C / 41°F
Dewpoint 2°C / 36°F
Humidity 81%
Altimeter 29.44" Hg
Pressure 997 hPa
Elevation 17
METAR ENST 221850Z 27012KT 250V310 9999 VCSH FEW012CB SCT025 SCT040 05/02 Q0997 RMK WIND 300FT 29019KT
Observed Flight Rules
Oct-22 @ 18:50 UTC
(6 hours ago)
VFR
Wind Visibility
270° at 12 knots 10,000+ meters
Clouds
  • Few at 1,200' AGL
  • Scattered at 2,500' AGL
  • Scattered at 4,000' AGL
Temperature Dewpoint
5°C / 41°F 2°C / 36°F
Humidity Altimeter Pressure
81% 29.44" Hg 997 hPa